Gray Mountain, Arizona
Current Conditions -  °F | °C
As of 10:54 AM on Thursday 27 Nov 2014 (Local Time) from KGCN Reporting Station
Clear Clear  
Wind Chill: 61°   Ceiling: Unl
Heat Index: 61°   Visibility: 10mi
Dew Point: 11°   Wind: 7mph
Humidity: 14%   Direction: 150°SSE
Pressure: 30.46"   Gusts: NA
Location:  35.75°N, 111.48°W
Report Text: KGCN 271754Z 15006KT 10SM CLR 16/M12 A3046 RMK AO2 SLP290 T01611117 10161 21106 58003
Loading
Personal Weather Stations






























Interactive Weather Map New forecast layout! Learn more

10-Day Weather Forecast

Advertisements
Track Severe Weather on mobile